createdAt,value
2023-12-19T00:01:58.288Z,1.72
2023-12-19T00:05:00.959Z,1.70
2023-12-19T00:08:03.267Z,1.68
2023-12-19T00:11:05.983Z,1.69
2023-12-19T00:14:08.642Z,1.64
2023-12-19T00:17:10.759Z,1.59
2023-12-19T00:20:13.375Z,1.60
2023-12-19T00:23:15.631Z,1.54
2023-12-19T00:26:17.924Z,1.53
2023-12-19T00:29:20.102Z,1.51
2023-12-19T00:32:22.401Z,1.53
2023-12-19T00:35:24.786Z,1.58
2023-12-19T00:38:26.954Z,1.64
2023-12-19T00:41:29.080Z,1.64
2023-12-19T00:44:31.256Z,1.68
2023-12-19T00:47:33.456Z,1.68
2023-12-19T00:50:35.582Z,1.51
2023-12-19T00:53:38.009Z,1.64
2023-12-19T00:56:43.539Z,1.59
2023-12-19T00:59:45.660Z,1.57
2023-12-19T01:02:47.838Z,1.59
2023-12-19T01:05:50.076Z,1.64
2023-12-19T01:08:52.505Z,1.60
2023-12-19T01:11:54.732Z,1.42
2023-12-19T01:14:56.937Z,1.42
2023-12-19T01:17:59.609Z,1.26
2023-12-19T01:21:01.856Z,1.24
2023-12-19T01:24:04.756Z,1.31
2023-12-19T01:27:06.921Z,1.33
2023-12-19T01:30:09.810Z,1.38
2023-12-19T01:33:12.287Z,1.50
2023-12-19T01:36:14.544Z,1.60
2023-12-19T01:39:16.991Z,1.67
2023-12-19T01:42:19.228Z,1.73
2023-12-19T01:45:22.640Z,1.73
2023-12-19T01:48:24.930Z,1.75
2023-12-19T01:51:27.548Z,1.73
2023-12-19T01:54:30.101Z,1.70
2023-12-19T01:57:32.292Z,1.51
2023-12-19T02:00:36.078Z,1.30
2023-12-19T02:03:38.994Z,1.14
2023-12-19T02:06:41.348Z,1.05
2023-12-19T02:09:43.705Z,0.99
2023-12-19T02:12:46.594Z,0.90
2023-12-19T02:15:49.986Z,0.85
2023-12-19T02:19:02.876Z,0.94
2023-12-19T02:22:05.121Z,1.00
2023-12-19T02:25:07.688Z,0.97
2023-12-19T02:28:10.014Z,0.98
2023-12-19T02:31:12.302Z,1.01
2023-12-19T02:34:14.756Z,1.00
2023-12-19T02:37:17.004Z,0.91
2023-12-19T02:40:19.168Z,0.86
2023-12-19T02:43:21.337Z,0.90
2023-12-19T02:46:24.584Z,0.97
2023-12-19T02:49:27.034Z,1.00
2023-12-19T02:52:29.181Z,1.03
2023-12-19T02:55:31.588Z,1.07
2023-12-19T02:58:33.788Z,1.01
2023-12-19T03:01:36.065Z,1.03
2023-12-19T03:04:41.889Z,1.06
2023-12-19T03:07:44.184Z,1.12
2023-12-19T03:10:46.358Z,1.02
2023-12-19T03:13:48.601Z,1.02
2023-12-19T03:16:50.717Z,1.11
2023-12-19T03:19:52.932Z,1.15
2023-12-19T03:22:55.185Z,1.15
2023-12-19T03:25:57.405Z,1.14
2023-12-19T03:28:59.563Z,1.13
2023-12-19T03:32:01.718Z,1.23
2023-12-19T03:35:04.166Z,1.31
2023-12-19T03:38:06.354Z,1.32
2023-12-19T03:41:08.682Z,1.38
2023-12-19T03:44:10.786Z,1.43
2023-12-19T03:47:13.337Z,1.44
2023-12-19T03:50:15.539Z,1.51
2023-12-19T03:53:17.751Z,1.48
2023-12-19T03:56:19.866Z,1.51
2023-12-19T03:59:22.073Z,1.55
2023-12-19T04:02:24.248Z,1.48
2023-12-19T04:05:26.470Z,1.47
2023-12-19T04:08:28.676Z,1.39
2023-12-19T04:11:30.827Z,1.27
2023-12-19T04:14:34.106Z,1.32
2023-12-19T04:17:36.310Z,1.38
2023-12-19T04:20:40.440Z,1.39
2023-12-19T04:23:42.641Z,1.49
2023-12-19T04:26:44.956Z,1.46
2023-12-19T04:29:47.312Z,1.48
2023-12-19T04:32:49.711Z,1.41
2023-12-19T04:35:51.928Z,1.42
2023-12-19T04:38:54.050Z,1.39
2023-12-19T04:41:56.212Z,1.32
2023-12-19T04:44:58.364Z,1.30
2023-12-19T04:48:00.685Z,1.35
2023-12-19T04:51:03.235Z,1.38
2023-12-19T04:54:07.076Z,1.33
2023-12-19T04:57:09.287Z,1.34
2023-12-19T05:00:11.861Z,1.36
2023-12-19T05:03:14.125Z,1.29
2023-12-19T05:06:19.107Z,1.28
2023-12-19T05:09:21.917Z,1.24
2023-12-19T05:12:25.353Z,1.09
2023-12-19T05:15:27.763Z,1.02
2023-12-19T05:18:30.043Z,0.81
2023-12-19T05:21:41.462Z,0.81
2023-12-19T05:24:43.738Z,0.84
2023-12-19T05:27:46.277Z,0.78
2023-12-19T05:30:48.486Z,0.79
2023-12-19T05:33:50.748Z,0.88
2023-12-19T05:36:52.947Z,0.89
2023-12-19T05:39:56.502Z,0.90
2023-12-19T05:42:59.435Z,0.97
2023-12-19T05:46:01.688Z,0.99
2023-12-19T05:49:04.222Z,1.00
2023-12-19T05:52:07.717Z,1.06
2023-12-19T05:55:09.996Z,1.06
2023-12-19T05:58:12.179Z,0.93
2023-12-19T06:01:14.834Z,0.90
2023-12-19T06:04:17.095Z,0.91
2023-12-19T06:07:19.302Z,0.99
2023-12-19T06:10:21.660Z,0.97
2023-12-19T06:13:24.336Z,1.00
2023-12-19T06:16:26.563Z,1.02
2023-12-19T06:19:28.827Z,1.02
2023-12-19T06:22:30.975Z,0.93
2023-12-19T06:25:34.075Z,0.75
2023-12-19T06:28:36.420Z,0.53
2023-12-19T06:31:44.129Z,0.42
2023-12-19T06:34:46.442Z,0.51
2023-12-19T06:37:48.778Z,0.55
2023-12-19T06:40:51.055Z,0.45
2023-12-19T06:43:55.633Z,0.31
2023-12-19T06:46:58.010Z,0.31
2023-12-19T06:50:00.406Z,0.36
2023-12-19T06:53:03.537Z,0.42
2023-12-19T06:56:05.833Z,0.39
2023-12-19T06:59:08.394Z,0.32
2023-12-19T07:02:10.507Z,0.30
2023-12-19T07:05:12.749Z,0.31
2023-12-19T07:08:14.912Z,0.27
2023-12-19T07:11:17.599Z,0.18
2023-12-19T07:14:19.804Z,0.16
2023-12-19T07:17:23.309Z,0.05
2023-12-19T07:20:25.596Z,-0.05
2023-12-19T07:23:28.363Z,-0.24
2023-12-19T07:26:31.008Z,-0.25
2023-12-19T07:29:33.162Z,-0.25
2023-12-19T07:32:35.457Z,-0.10
2023-12-19T07:35:37.662Z,0.06
2023-12-19T07:38:40.278Z,0.08
2023-12-19T07:41:42.480Z,0.06
2023-12-19T07:44:44.602Z,-0.02
2023-12-19T07:47:46.997Z,-0.10
2023-12-19T07:50:49.233Z,-0.10
2023-12-19T07:53:51.893Z,-0.10
2023-12-19T07:56:54.208Z,-0.09
2023-12-19T07:59:56.323Z,0.00
2023-12-19T08:02:58.878Z,0.13
2023-12-19T08:06:01.799Z,0.17
2023-12-19T08:09:05.538Z,0.32
2023-12-19T08:12:07.861Z,0.38
2023-12-19T08:15:11.652Z,0.43
2023-12-19T08:18:13.960Z,0.50
2023-12-19T08:21:16.222Z,0.64
2023-12-19T08:24:18.837Z,0.79
2023-12-19T08:27:24.141Z,0.85
2023-12-19T08:30:31.420Z,0.90
2023-12-19T08:33:33.702Z,0.81
2023-12-19T08:36:36.075Z,0.72
2023-12-19T08:39:42.376Z,0.89
2023-12-19T08:42:44.707Z,0.95
2023-12-19T08:45:48.795Z,1.04
2023-12-19T08:48:53.748Z,1.11
2023-12-19T08:51:56.081Z,1.21
2023-12-19T08:54:58.299Z,1.29
2023-12-19T08:58:00.569Z,1.34
2023-12-19T09:01:02.823Z,1.40
2023-12-19T09:04:05.061Z,1.53
2023-12-19T09:07:07.348Z,1.61
2023-12-19T09:10:13.231Z,1.74
2023-12-19T09:13:17.080Z,1.84
2023-12-19T09:16:19.324Z,1.90
2023-12-19T09:19:21.637Z,1.97
2023-12-19T09:22:23.916Z,2.01
2023-12-19T09:25:26.119Z,1.93
2023-12-19T09:28:31.430Z,1.73
2023-12-19T09:31:33.883Z,1.60
2023-12-19T09:34:38.440Z,1.59
2023-12-19T09:37:40.951Z,1.60
2023-12-19T09:40:44.905Z,1.36
2023-12-19T09:43:47.076Z,1.04
2023-12-19T09:46:50.909Z,0.94
2023-12-19T09:50:01.415Z,0.87
2023-12-19T09:53:08.763Z,0.89
2023-12-19T09:56:11.101Z,0.88
2023-12-19T09:59:19.251Z,0.90
2023-12-19T10:02:21.448Z,0.94
2023-12-19T10:05:23.645Z,0.94
2023-12-19T10:08:25.903Z,0.98
2023-12-19T10:11:28.996Z,0.97
2023-12-19T10:14:31.192Z,0.86
2023-12-19T10:17:33.406Z,0.76
2023-12-19T10:20:38.162Z,0.57
2023-12-19T10:23:43.920Z,0.48
2023-12-19T10:26:46.068Z,0.33
2023-12-19T10:29:48.360Z,0.32
2023-12-19T10:32:56.875Z,0.35
2023-12-19T10:35:59.493Z,0.35
2023-12-19T10:39:03.420Z,0.54
2023-12-19T10:42:10.770Z,0.63
2023-12-19T10:45:13.016Z,0.85
2023-12-19T10:48:15.245Z,0.97
2023-12-19T10:51:34.335Z,1.14
2023-12-19T10:54:37.974Z,1.31
2023-12-19T10:57:40.103Z,1.37
2023-12-19T11:00:43.172Z,1.32
2023-12-19T11:03:54.017Z,1.37
2023-12-19T11:06:57.396Z,1.49
2023-12-19T11:10:07.619Z,1.51
2023-12-19T11:13:11.454Z,1.63
2023-12-19T11:16:23.447Z,1.71
2023-12-19T11:19:52.113Z,1.62
2023-12-19T11:23:01.018Z,1.47
2023-12-19T11:26:09.396Z,1.34
2023-12-19T11:29:43.983Z,1.18
2023-12-19T11:32:48.424Z,1.04
2023-12-19T11:35:50.613Z,0.97
2023-12-19T11:39:25.532Z,0.91
2023-12-19T11:42:39.985Z,0.86
2023-12-19T11:45:43.445Z,1.00
2023-12-19T11:48:51.025Z,1.14
2023-12-19T11:51:55.528Z,1.22
2023-12-19T11:55:03.357Z,1.21
2023-12-19T11:58:09.660Z,1.27
2023-12-19T12:01:12.262Z,1.41
2023-12-19T12:04:14.633Z,1.45
2023-12-19T12:07:16.944Z,1.55
2023-12-19T12:10:23.736Z,1.57
2023-12-19T12:13:27.703Z,1.70
2023-12-19T12:16:37.254Z,1.79
2023-12-19T12:19:39.539Z,1.76
2023-12-19T12:22:42.078Z,1.79
2023-12-19T12:25:44.307Z,1.84
2023-12-19T12:28:52.411Z,1.77
2023-12-19T12:31:54.634Z,1.82
2023-12-19T12:34:56.876Z,1.78
2023-12-19T12:38:07.056Z,1.63
2023-12-19T12:41:10.895Z,1.52
2023-12-19T12:44:13.438Z,1.55
2023-12-19T12:47:25.469Z,1.60
2023-12-19T12:50:27.730Z,1.61
2023-12-19T12:53:29.995Z,1.58
2023-12-19T12:56:36.002Z,1.52
2023-12-19T12:59:39.950Z,1.49
2023-12-19T13:02:42.270Z,1.52
2023-12-19T13:05:44.641Z,1.60
2023-12-19T13:08:47.002Z,1.65
2023-12-19T13:11:52.005Z,1.61
2023-12-19T13:14:54.375Z,1.56
2023-12-19T13:17:56.536Z,1.56
2023-12-19T13:20:58.780Z,1.59
2023-12-19T13:24:00.901Z,1.63
2023-12-19T13:27:03.042Z,1.68
2023-12-19T13:30:05.903Z,1.66
2023-12-19T13:33:12.659Z,1.66
2023-12-19T13:36:17.483Z,1.65
2023-12-19T13:39:21.536Z,1.53
2023-12-19T13:42:24.481Z,1.53
2023-12-19T13:45:27.912Z,1.47
2023-12-19T13:48:30.207Z,1.47
2023-12-19T13:51:32.549Z,1.53
2023-12-19T13:54:34.844Z,1.54
2023-12-19T13:57:37.147Z,1.49
2023-12-19T14:00:39.335Z,1.58
2023-12-19T14:03:41.764Z,1.53
2023-12-19T14:06:47.443Z,1.57
2023-12-19T14:09:50.422Z,1.66
2023-12-19T14:12:52.716Z,1.62
2023-12-19T14:15:55.577Z,1.57
2023-12-19T14:18:58.025Z,1.61
2023-12-19T14:22:03.091Z,1.57
2023-12-19T14:25:05.856Z,1.62
2023-12-19T14:28:08.138Z,1.56
2023-12-19T14:31:15.965Z,1.59
2023-12-19T14:34:18.472Z,1.59
2023-12-19T14:37:20.901Z,1.56
2023-12-19T14:40:23.148Z,1.42
2023-12-19T14:43:27.792Z,1.52
2023-12-19T14:46:29.942Z,1.54
2023-12-19T14:49:32.449Z,1.49
2023-12-19T14:52:34.854Z,1.55
2023-12-19T14:55:37.531Z,1.55
2023-12-19T14:58:39.819Z,1.50
2023-12-19T15:01:42.140Z,1.43
2023-12-19T15:04:44.428Z,1.36
2023-12-19T15:07:47.602Z,1.37
2023-12-19T15:10:50.248Z,1.33
2023-12-19T15:13:53.916Z,1.36
2023-12-19T15:16:57.132Z,1.25
2023-12-19T15:19:59.446Z,1.29
2023-12-19T15:23:03.522Z,1.15
2023-12-19T15:26:06.606Z,1.03
2023-12-19T15:29:13.010Z,0.92
2023-12-19T15:32:15.147Z,0.84
2023-12-19T15:35:17.374Z,0.76
2023-12-19T15:38:19.603Z,0.77
2023-12-19T15:41:22.316Z,0.84
2023-12-19T15:44:24.668Z,0.94
2023-12-19T15:47:26.812Z,1.08
2023-12-19T15:50:29.038Z,1.11
2023-12-19T15:53:31.214Z,1.18
2023-12-19T15:56:33.819Z,1.21
2023-12-19T15:59:36.001Z,1.20
2023-12-19T16:02:45.936Z,1.07
2023-12-19T16:05:50.927Z,1.09
2023-12-19T16:08:53.457Z,1.16
2023-12-19T16:11:55.690Z,1.08
2023-12-19T16:14:57.916Z,0.96
2023-12-19T16:18:00.264Z,0.91
2023-12-19T16:21:04.341Z,0.96
2023-12-19T16:24:07.264Z,1.09
2023-12-19T16:27:09.972Z,1.21
2023-12-19T16:30:13.156Z,1.28
2023-12-19T16:33:15.340Z,1.31
2023-12-19T16:36:17.566Z,1.32
2023-12-19T16:39:19.871Z,1.19
2023-12-19T16:42:22.454Z,1.06
2023-12-19T16:45:24.781Z,0.95
2023-12-19T16:48:27.101Z,0.99
2023-12-19T16:51:29.547Z,1.10
2023-12-19T16:54:31.833Z,1.10
2023-12-19T16:57:37.113Z,1.11
2023-12-19T17:00:39.395Z,1.11
2023-12-19T17:03:43.155Z,1.03
2023-12-19T17:06:45.921Z,1.15
2023-12-19T17:09:48.356Z,1.19
2023-12-19T17:12:50.652Z,1.19
2023-12-19T17:15:52.833Z,1.19
2023-12-19T17:18:55.279Z,1.22
2023-12-19T17:22:00.217Z,1.26
2023-12-19T17:25:05.943Z,1.18
2023-12-19T17:28:08.740Z,1.20
2023-12-19T17:31:11.169Z,1.14
2023-12-19T17:34:14.004Z,1.16
2023-12-19T17:37:16.367Z,1.14
2023-12-19T17:40:19.022Z,1.14
2023-12-19T17:43:21.457Z,1.19
2023-12-19T17:46:23.834Z,1.15
2023-12-19T17:49:26.256Z,1.23
2023-12-19T17:52:28.890Z,1.24
2023-12-19T17:55:31.148Z,1.27
2023-12-19T17:58:33.378Z,1.15
2023-12-19T18:01:45.440Z,1.07
2023-12-19T18:04:47.761Z,1.04
2023-12-19T18:07:49.968Z,1.10
2023-12-19T18:10:52.296Z,1.15
2023-12-19T18:13:54.682Z,1.17
2023-12-19T18:17:03.915Z,1.24
2023-12-19T18:20:07.087Z,1.30
2023-12-19T18:23:09.417Z,1.20
2023-12-19T18:26:12.245Z,1.24
2023-12-19T18:29:14.459Z,1.28
2023-12-19T18:32:16.780Z,1.23
2023-12-19T18:35:19.625Z,1.26
2023-12-19T18:38:21.853Z,1.19
2023-12-19T18:41:24.052Z,1.20
2023-12-19T18:44:26.726Z,1.20
2023-12-19T18:47:28.959Z,1.09
2023-12-19T18:50:31.227Z,1.08
2023-12-19T18:53:34.373Z,1.09
2023-12-19T18:56:36.596Z,1.14
2023-12-19T18:59:38.837Z,1.09
2023-12-19T19:02:41.284Z,1.08
2023-12-19T19:05:43.674Z,1.07
2023-12-19T19:08:45.939Z,1.02
2023-12-19T19:11:48.789Z,1.06
2023-12-19T19:14:51.403Z,1.09
2023-12-19T19:17:53.695Z,1.14
2023-12-19T19:20:55.960Z,1.08
2023-12-19T19:23:58.189Z,1.11
2023-12-19T19:27:00.561Z,0.97
2023-12-19T19:30:02.897Z,0.86
2023-12-19T19:33:05.426Z,0.86
2023-12-19T19:36:07.946Z,0.85
2023-12-19T19:39:11.567Z,0.78
2023-12-19T19:42:14.100Z,0.85
2023-12-19T19:45:16.962Z,0.87
2023-12-19T19:48:19.139Z,0.80
2023-12-19T19:51:21.948Z,0.68
2023-12-19T19:54:24.580Z,0.63
2023-12-19T19:57:27.533Z,0.67
2023-12-19T20:00:29.698Z,0.79
2023-12-19T20:03:31.968Z,0.85
2023-12-19T20:06:35.863Z,0.93
2023-12-19T20:09:38.140Z,0.95
2023-12-19T20:12:40.469Z,0.95
2023-12-19T20:15:42.702Z,0.96
2023-12-19T20:18:44.929Z,0.94
2023-12-19T20:21:47.272Z,0.79
2023-12-19T20:24:51.336Z,0.61
2023-12-19T20:27:53.651Z,0.54
2023-12-19T20:30:55.902Z,0.56
2023-12-19T20:33:58.199Z,0.66
2023-12-19T20:37:00.494Z,0.77
2023-12-19T20:40:02.780Z,0.73
2023-12-19T20:43:04.979Z,0.58
2023-12-19T20:46:07.787Z,0.44
2023-12-19T20:49:10.232Z,0.38
2023-12-19T20:52:12.520Z,0.26
2023-12-19T20:55:14.754Z,0.26
2023-12-19T20:58:17.202Z,0.39
2023-12-19T21:01:19.651Z,0.48
2023-12-19T21:04:21.996Z,0.66
2023-12-19T21:07:25.284Z,0.77
2023-12-19T21:10:27.472Z,0.72
2023-12-19T21:13:30.885Z,0.67
2023-12-19T21:16:33.106Z,0.70
2023-12-19T21:19:36.138Z,0.71
2023-12-19T21:22:38.435Z,0.71
2023-12-19T21:25:40.660Z,0.69
2023-12-19T21:28:43.869Z,0.57
2023-12-19T21:31:46.138Z,0.70
2023-12-19T21:34:48.546Z,0.65
2023-12-19T21:37:50.771Z,0.70
2023-12-19T21:40:53.134Z,0.78
2023-12-19T21:43:55.270Z,0.74
2023-12-19T21:46:57.795Z,0.75
2023-12-19T21:50:00.304Z,0.67
2023-12-19T21:53:02.761Z,0.67
2023-12-19T21:56:05.081Z,0.73
2023-12-19T21:59:07.887Z,0.75
2023-12-19T22:02:10.389Z,0.78
2023-12-19T22:05:12.875Z,0.76
2023-12-19T22:08:15.041Z,0.66
2023-12-19T22:11:17.385Z,0.64
2023-12-19T22:14:19.543Z,0.69
2023-12-19T22:17:21.768Z,0.70
2023-12-19T22:20:23.997Z,0.67
2023-12-19T22:23:26.292Z,0.66
2023-12-19T22:26:28.441Z,0.57
2023-12-19T22:29:30.582Z,0.54
2023-12-19T22:32:33.472Z,0.59
2023-12-19T22:35:39.456Z,0.57
2023-12-19T22:38:42.106Z,0.41
2023-12-19T22:41:44.292Z,0.45
2023-12-19T22:44:46.506Z,0.41
2023-12-19T22:47:49.558Z,0.51
2023-12-19T22:50:51.834Z,0.47
2023-12-19T22:53:53.990Z,0.41
2023-12-19T22:56:56.109Z,0.33
2023-12-19T22:59:58.256Z,0.25
2023-12-19T23:03:00.463Z,0.19
2023-12-19T23:06:02.940Z,0.18
2023-12-19T23:09:05.155Z,0.12
2023-12-19T23:12:07.905Z,0.00
2023-12-19T23:15:10.583Z,-0.09
2023-12-19T23:18:13.001Z,-0.16
2023-12-19T23:21:15.222Z,-0.18
2023-12-19T23:24:17.622Z,-0.18
2023-12-19T23:27:20.625Z,-0.15
2023-12-19T23:30:23.022Z,-0.04
2023-12-19T23:33:25.431Z,0.13
2023-12-19T23:36:27.688Z,0.21
2023-12-19T23:39:30.283Z,0.29
2023-12-19T23:42:32.407Z,0.22
2023-12-19T23:45:34.589Z,0.28
2023-12-19T23:48:36.844Z,0.30
2023-12-19T23:51:39.066Z,0.34
2023-12-19T23:54:41.306Z,0.30
2023-12-19T23:57:44.284Z,0.26
